Time;durP1;ratioP1;P1;durP2;ratioP2;P2;SDS_P1;SDS_P2;PMS_P1;PMS_P2;Temp;Humidity;BMP_temperature;BMP_pressure;BME280_temperature;BME280_humidity;BME280_pressure;Samples;Min_cycle;Max_cycle;Signal;HPM_P1;HPM_P2
2021/12/10 00:02:01;;;;;;;;;;;23.20;38.40;;;;;;5078244;28;19912;-80
2021/12/10 00:04:30;;;;;;;;;;;23.20;38.40;;;;;;5061956;28;19968;-82
2021/12/10 00:06:57;;;;;;;;;;;23.20;38.40;;;;;;5078986;28;19920;-78
2021/12/10 00:09:23;;;;;;;;;;;23.20;38.40;;;;;;5061536;28;19917;-78
2021/12/10 00:12:09;;;;;;;;;;;23.30;38.50;;;;;;5061373;28;19912;-78
2021/12/10 00:14:35;;;;;;;;;;;23.20;38.40;;;;;;5095410;28;19908;-79
2021/12/10 00:17:01;;;;;;;;;;;23.20;38.40;;;;;;5061466;28;19912;-77
2021/12/10 00:19:38;;;;;;;;;;;23.30;38.50;;;;;;5078103;28;19919;-77
2021/12/10 00:22:06;;;;;;;;;;;23.20;38.40;;;;;;5095960;28;19909;-81
2021/12/10 00:24:32;;;;;;;;;;;23.20;38.40;;;;;;5076791;28;19912;-84
2021/12/10 00:26:58;;;;;;;;;;;23.20;38.40;;;;;;5078029;28;19919;-77
2021/12/10 00:29:24;;;;;;;;;;;23.20;38.40;;;;;;5096388;28;19915;-79
2021/12/10 00:31:54;;;;;;;;;;;23.30;38.50;;;;;;5061246;28;20005;-83
2021/12/10 00:34:26;;;;;;;;;;;23.20;38.40;;;;;;5077817;28;19916;-81
2021/12/10 00:36:53;;;;;;;;;;;23.20;38.50;;;;;;5077769;28;19912;-78
2021/12/10 00:39:27;;;;;;;;;;;23.20;38.40;;;;;;5061047;28;19908;-80
2021/12/10 00:41:53;;;;;;;;;;;23.20;38.40;;;;;;5061183;28;19908;-82
2021/12/10 00:44:18;;;;;;;;;;;23.20;38.40;;;;;;5061638;28;20404;-81
2021/12/10 00:46:44;;;;;;;;;;;23.20;38.50;;;;;;5077625;28;20036;-79
2021/12/10 00:49:09;;;;;;;;;;;23.20;38.50;;;;;;5077575;28;19938;-80
2021/12/10 00:51:36;;;;;;;;;;;23.20;38.50;;;;;;5077673;28;20379;-78
2021/12/10 00:54:02;;;;;;;;;;;23.20;38.40;;;;;;5061050;28;19946;-82
2021/12/10 00:56:27;;;;;;;;;;;23.20;38.50;;;;;;5077824;28;19916;-78
2021/12/10 00:58:53;;;;;;;;;;;23.30;38.50;;;;;;5060653;28;19920;-81
2021/12/10 01:01:21;;;;;;;;;;;23.20;38.50;;;;;;5060561;28;19919;-77
2021/12/10 01:03:53;;;;;;;;;;;23.20;38.50;;;;;;5061097;28;19915;-84
2021/12/10 01:06:19;;;;;;;;;;;23.20;38.50;;;;;;5095254;28;20411;-80
2021/12/10 01:08:46;;;;;;;;;;;23.20;38.50;;;;;;5077536;28;19955;-79
2021/12/10 01:11:16;;;;;;;;;;;23.20;38.50;;;;;;5094816;28;20302;-79
2021/12/10 01:13:44;;;;;;;;;;;23.20;38.50;;;;;;5077163;28;20011;-79
2021/12/10 01:23:59;;;;;;;;;;;23.20;38.50;;;;;;5078224;28;19908;-81
2021/12/10 01:26:51;;;;;;;;;;;23.20;38.60;;;;;;5077665;28;20004;-81
2021/12/10 01:29:22;;;;;;;;;;;23.20;38.60;;;;;;5077359;28;20265;-81
2021/12/10 01:31:48;;;;;;;;;;;23.20;38.60;;;;;;5060221;28;20065;-79
2021/12/10 01:34:13;;;;;;;;;;;23.20;38.60;;;;;;5094816;28;19965;-78
2021/12/10 01:36:39;;;;;;;;;;;23.20;38.60;;;;;;5080321;28;19908;-78
2021/12/10 01:39:06;;;;;;;;;;;23.20;38.60;;;;;;5081239;28;20340;-82
2021/12/10 01:41:36;;;;;;;;;;;23.20;38.60;;;;;;5064494;28;19920;-82
2021/12/10 01:44:12;;;;;;;;;;;23.20;39.10;;;;;;5098883;28;19912;-79
2021/12/10 01:46:40;;;;;;;;;;;23.20;38.50;;;;;;5065508;28;20352;-82
2021/12/10 01:49:05;;;;;;;;;;;23.20;38.50;;;;;;5081386;28;19920;-82
2021/12/10 01:51:31;;;;;;;;;;;23.20;38.50;;;;;;5080605;28;19920;-81
2021/12/10 01:54:07;;;;;;;;;;;23.20;38.50;;;;;;5064071;28;19919;-81
2021/12/10 01:56:33;;;;;;;;;;;23.20;38.60;;;;;;5064039;28;20245;-79
2021/12/10 01:58:58;;;;;;;;;;;23.20;38.50;;;;;;5063768;28;20321;-77
2021/12/10 02:01:26;;;;;;;;;;;23.20;38.50;;;;;;5063999;28;19915;-80
2021/12/10 02:03:52;;;;;;;;;;;23.20;38.50;;;;;;5080612;28;19915;-79
2021/12/10 02:06:18;;;;;;;;;;;23.20;38.50;;;;;;5063822;28;20333;-78
2021/12/10 02:08:43;;;;;;;;;;;23.20;38.50;;;;;;5080597;28;19915;-79
2021/12/10 02:11:09;;;;;;;;;;;23.20;38.50;;;;;;5063910;28;19912;-80
2021/12/10 02:13:35;;;;;;;;;;;23.20;38.60;;;;;;5080434;28;20061;-79
2021/12/10 02:16:00;;;;;;;;;;;23.20;38.60;;;;;;5063527;28;19994;-79
2021/12/10 02:18:26;;;;;;;;;;;23.20;38.60;;;;;;5080156;28;19918;-81
2021/12/10 02:20:54;;;;;;;;;;;23.20;38.60;;;;;;5080387;28;20062;-78
2021/12/10 02:23:21;;;;;;;;;;;23.20;38.60;;;;;;5080097;28;20293;-84
2021/12/10 02:25:48;;;;;;;;;;;23.20;38.60;;;;;;5080396;28;19934;-78
2021/12/10 02:28:14;;;;;;;;;;;23.20;38.60;;;;;;5063475;28;19915;-80
2021/12/10 02:30:39;;;;;;;;;;;23.20;38.60;;;;;;5063252;28;20279;-79
2021/12/10 02:33:05;;;;;;;;;;;23.20;38.60;;;;;;5063607;28;19908;-79
2021/12/10 02:35:31;;;;;;;;;;;23.20;38.60;;;;;;5097857;28;19908;-77
2021/12/10 02:37:56;;;;;;;;;;;23.20;38.60;;;;;;5063428;28;19918;-77
2021/12/10 02:40:22;;;;;;;;;;;23.20;38.60;;;;;;5080002;28;19908;-77
2021/12/10 02:42:48;;;;;;;;;;;23.20;38.60;;;;;;5079955;28;19908;-81
2021/12/10 02:45:16;;;;;;;;;;;23.20;38.60;;;;;;5063289;28;20294;-78
2021/12/10 02:47:42;;;;;;;;;;;23.20;38.60;;;;;;5062362;28;19955;-79
2021/12/10 02:50:08;;;;;;;;;;;23.20;38.60;;;;;;5062948;28;19963;-78
2021/12/10 02:52:33;;;;;;;;;;;23.20;38.60;;;;;;5063036;28;19963;-82
2021/12/10 02:54:59;;;;;;;;;;;23.20;38.60;;;;;;5063187;28;20388;-81
2021/12/10 02:57:25;;;;;;;;;;;23.20;38.60;;;;;;5063024;28;20360;-79
2021/12/10 02:59:51;;;;;;;;;;;23.20;38.60;;;;;;5062922;28;19943;-79
2021/12/10 03:02:17;;;;;;;;;;;23.20;38.60;;;;;;5063194;28;20321;-77
2021/12/10 03:04:43;;;;;;;;;;;23.20;38.60;;;;;;5079651;28;19919;-79
2021/12/10 03:07:13;;;;;;;;;;;23.20;38.60;;;;;;5079440;28;20261;-78
2021/12/10 03:09:39;;;;;;;;;;;23.20;38.60;;;;;;5063127;28;19908;-78
2021/12/10 03:12:05;;;;;;;;;;;23.20;38.60;;;;;;5062405;28;19912;-81
2021/12/10 03:14:32;;;;;;;;;;;23.20;38.60;;;;;;5062673;28;20003;-79
2021/12/10 03:16:59;;;;;;;;;;;23.20;38.60;;;;;;5062699;28;19919;-80
2021/12/10 03:19:25;;;;;;;;;;;23.20;38.60;;;;;;5079291;28;19908;-78
2021/12/10 03:21:53;;;;;;;;;;;23.20;38.60;;;;;;5079325;28;19948;-78
2021/12/10 03:24:22;;;;;;;;;;;23.20;38.60;;;;;;5062317;28;20022;-79
2021/12/10 03:26:51;;;;;;;;;;;23.20;38.60;;;;;;5079208;28;19918;-83
2021/12/10 03:29:23;;;;;;;;;;;23.20;38.60;;;;;;5079219;28;19909;-81
2021/12/10 03:31:51;;;;;;;;;;;23.20;38.60;;;;;;5096586;28;19912;-80
2021/12/10 03:34:17;;;;;;;;;;;23.20;38.60;;;;;;5062548;28;19919;-82
2021/12/10 03:36:45;;;;;;;;;;;23.20;38.60;;;;;;5079154;28;19908;-80
2021/12/10 03:39:14;;;;;;;;;;;23.20;38.60;;;;;;5062519;28;20211;-83
2021/12/10 03:41:40;;;;;;;;;;;23.20;38.60;;;;;;5078744;28;19912;-79
2021/12/10 03:44:05;;;;;;;;;;;23.20;38.60;;;;;;5062158;28;19908;-81
2021/12/10 03:46:31;;;;;;;;;;;23.20;38.60;;;;;;5078549;28;19916;-80
2021/12/10 03:49:03;;;;;;;;;;;23.20;38.60;;;;;;5078498;28;19919;-80
2021/12/10 03:51:28;;;;;;;;;;;23.20;38.60;;;;;;5096421;28;19920;-83
2021/12/10 03:53:54;;;;;;;;;;;23.20;38.60;;;;;;5078502;28;19908;-79
2021/12/10 03:56:20;;;;;;;;;;;23.20;38.60;;;;;;5078452;28;19908;-80
2021/12/10 03:58:45;;;;;;;;;;;23.20;38.60;;;;;;5061088;28;19924;-78
2021/12/10 04:01:11;;;;;;;;;;;23.20;38.60;;;;;;5078373;28;20306;-78
2021/12/10 04:03:37;;;;;;;;;;;23.20;38.60;;;;;;5078214;28;19923;-78
2021/12/10 04:06:03;;;;;;;;;;;23.20;38.60;;;;;;5078025;28;19908;-76
2021/12/10 04:08:29;;;;;;;;;;;23.20;38.60;;;;;;5061897;28;19975;-82
2021/12/10 04:10:54;;;;;;;;;;;23.20;38.60;;;;;;5078270;28;19912;-82
2021/12/10 04:13:20;;;;;;;;;;;23.20;38.60;;;;;;5061650;28;20302;-81
2021/12/10 04:15:46;;;;;;;;;;;23.20;38.60;;;;;;5061599;28;19908;-82
2021/12/10 04:18:11;;;;;;;;;;;23.20;38.60;;;;;;5095794;28;19912;-78
2021/12/10 04:20:39;;;;;;;;;;;23.20;38.60;;;;;;5061532;28;19962;-81
2021/12/10 04:23:06;;;;;;;;;;;23.20;38.60;;;;;;5061545;28;19908;-80
2021/12/10 04:25:31;;;;;;;;;;;23.20;38.60;;;;;;5061258;28;19969;-78
2021/12/10 04:28:00;;;;;;;;;;;23.20;38.60;;;;;;5061376;28;19908;-82
2021/12/10 04:30:35;;;;;;;;;;;23.20;38.60;;;;;;5077727;28;19923;-78
2021/12/10 04:33:02;;;;;;;;;;;23.20;38.60;;;;;;5078846;28;19915;-81
2021/12/10 04:35:27;;;;;;;;;;;23.20;38.60;;;;;;5078094;28;19918;-77
2021/12/10 04:37:53;;;;;;;;;;;23.20;38.60;;;;;;5061442;28;19919;-78
2021/12/10 04:40:23;;;;;;;;;;;23.20;38.60;;;;;;5095469;28;19934;-79
2021/12/10 04:42:49;;;;;;;;;;;23.20;38.60;;;;;;5061495;28;19962;-80
2021/12/10 04:45:18;;;;;;;;;;;23.20;38.60;;;;;;5061291;28;19951;-80
2021/12/10 04:47:46;;;;;;;;;;;23.20;38.60;;;;;;5077993;28;19908;-77
2021/12/10 04:50:14;;;;;;;;;;;23.20;38.60;;;;;;5095296;28;19912;-77
2021/12/10 04:52:40;;;;;;;;;;;23.20;38.60;;;;;;5077729;28;19908;-80
2021/12/10 04:55:08;;;;;;;;;;;23.10;38.50;;;;;;5060976;28;19908;-79
2021/12/10 04:57:36;;;;;;;;;;;23.20;38.60;;;;;;5061025;28;20007;-78
2021/12/10 05:00:03;;;;;;;;;;;23.20;38.60;;;;;;5060938;28;19924;-80
2021/12/10 05:02:29;;;;;;;;;;;23.20;38.60;;;;;;5077493;28;20007;-79
2021/12/10 05:04:58;;;;;;;;;;;23.20;38.60;;;;;;5077570;28;20365;-76
2021/12/10 05:07:29;;;;;;;;;;;23.20;38.60;;;;;;5061608;28;19962;-81
2021/12/10 05:09:55;;;;;;;;;;;23.20;38.50;;;;;;5077814;28;19908;-79
2021/12/10 05:12:23;;;;;;;;;;;23.20;38.50;;;;;;5099082;28;20014;-83
2021/12/10 05:14:48;;;;;;;;;;;23.20;38.60;;;;;;5081861;28;19908;-81
2021/12/10 05:17:14;;;;;;;;;;;23.20;38.60;;;;;;5064944;28;19914;-78
2021/12/10 05:19:40;;;;;;;;;;;23.20;38.60;;;;;;5081824;28;20309;-81
2021/12/10 05:22:06;;;;;;;;;;;23.20;38.60;;;;;;5081598;28;19920;-79
2021/12/10 05:24:31;;;;;;;;;;;23.20;38.60;;;;;;5081807;28;19912;-85
2021/12/10 05:27:00;;;;;;;;;;;23.20;38.60;;;;;;5081750;28;19908;-80
2021/12/10 05:29:25;;;;;;;;;;;23.20;38.60;;;;;;5064489;28;20322;-79
2021/12/10 05:31:54;;;;;;;;;;;23.20;38.60;;;;;;5081397;28;19923;-79
2021/12/10 05:34:22;;;;;;;;;;;23.20;39.20;;;;;;5082186;28;19915;-79
2021/12/10 05:36:48;;;;;;;;;;;23.20;38.60;;;;;;5065538;28;19909;-77
2021/12/10 05:39:14;;;;;;;;;;;23.20;38.80;;;;;;5081525;28;19996;-79
2021/12/10 05:41:42;;;;;;;;;;;23.20;36.90;;;;;;5081475;28;19919;-77
2021/12/10 05:44:10;;;;;;;;;;;18.10;30.60;;;;;;5098815;28;19908;-76
2021/12/10 05:46:39;;;;;;;;;;;15.90;33.20;;;;;;5064747;28;19908;-77
2021/12/10 05:49:05;;;;;;;;;;;16.30;37.90;;;;;;5098966;28;19919;-75
2021/12/10 05:51:30;;;;;;;;;;;17.90;39.30;;;;;;5064554;28;19912;-79
2021/12/10 05:53:56;;;;;;;;;;;19.00;37.30;;;;;;5080936;28;20329;-76
2021/12/10 05:56:24;;;;;;;;;;;19.90;36.10;;;;;;5064356;28;19956;-76
2021/12/10 05:58:49;;;;;;;;;;;20.50;35.70;;;;;;5098469;28;19977;-77
2021/12/10 06:01:18;;;;;;;;;;;21.00;35.50;;;;;;5081105;28;19908;-78
2021/12/10 06:03:51;;;;;;;;;;;21.40;35.10;;;;;;5064627;28;20313;-77
2021/12/10 06:06:17;;;;;;;;;;;21.60;35.00;;;;;;5080939;28;20337;-82
2021/12/10 06:08:45;;;;;;;;;;;21.80;34.90;;;;;;5080523;28;19919;-76
2021/12/10 06:11:10;;;;;;;;;;;22.00;35.00;;;;;;5063646;28;19912;-76
2021/12/10 06:13:38;;;;;;;;;;;22.10;34.90;;;;;;5080361;28;20348;-79
2021/12/10 06:16:05;;;;;;;;;;;22.10;35.00;;;;;;5098401;28;19908;-78
2021/12/10 06:18:33;;;;;;;;;;;22.20;35.00;;;;;;5098061;28;20355;-79
2021/12/10 06:21:01;;;;;;;;;;;22.20;35.10;;;;;;5080870;28;19908;-80
2021/12/10 06:23:29;;;;;;;;;;;22.30;35.20;;;;;;5063904;28;19952;-77
2021/12/10 06:25:55;;;;;;;;;;;22.30;35.30;;;;;;5080326;28;20447;-79
2021/12/10 06:28:20;;;;;;;;;;;22.30;35.40;;;;;;5080165;28;20002;-78
2021/12/10 06:30:49;;;;;;;;;;;22.40;35.50;;;;;;5080203;28;19923;-77
2021/12/10 06:33:15;;;;;;;;;;;22.40;35.60;;;;;;5080658;28;19962;-78
2021/12/10 06:35:41;;;;;;;;;;;22.40;35.60;;;;;;5063679;28;20479;-81
2021/12/10 06:38:07;;;;;;;;;;;22.40;35.70;;;;;;5080271;28;19908;-76
2021/12/10 06:40:33;;;;;;;;;;;22.40;35.80;;;;;;5064001;28;19920;-82
2021/12/10 06:42:58;;;;;;;;;;;22.50;35.90;;;;;;5080113;28;19908;-82
2021/12/10 06:45:26;;;;;;;;;;;22.50;36.00;;;;;;5079865;28;20245;-80
2021/12/10 06:47:58;;;;;;;;;;;22.50;36.10;;;;;;5063475;28;19923;-78
2021/12/10 06:50:26;;;;;;;;;;;22.50;36.10;;;;;;5080770;28;20238;-78
2021/12/10 06:52:52;;;;;;;;;;;22.50;36.20;;;;;;5080084;28;19923;-80
2021/12/10 06:55:18;;;;;;;;;;;22.50;36.20;;;;;;5063318;28;19919;-76
2021/12/10 06:57:46;;;;;;;;;;;22.50;36.30;;;;;;5062946;28;19908;-85
2021/12/10 07:00:20;;;;;;;;;;;22.50;36.70;;;;;;5079832;28;19946;-78
2021/12/10 07:02:50;;;;;;;;;;;22.70;36.80;;;;;;5079278;28;20349;-78
2021/12/10 07:05:18;;;;;;;;;;;22.60;36.80;;;;;;5080087;28;19915;-75
2021/12/10 07:07:44;;;;;;;;;;;22.60;37.20;;;;;;5062972;28;19912;-79
2021/12/10 07:10:10;;;;;;;;;;;22.60;37.40;;;;;;5079033;28;19973;-80
2021/12/10 07:12:36;;;;;;;;;;;22.60;37.20;;;;;;5079520;28;19908;-79
2021/12/10 07:15:02;;;;;;;;;;;22.60;37.20;;;;;;5079684;28;19999;-79
2021/12/10 07:17:54;;;;;;;;;;;22.60;39.90;;;;;;5112561;27;19912;-76
2021/12/10 07:20:20;;;;;;;;;;;22.70;39.20;;;;;;5110995;28;19994;-76
2021/12/10 07:22:48;;;;;;;;;;;22.80;39.30;;;;;;5111246;28;20269;-74
2021/12/10 07:25:19;;;;;;;;;;;22.80;37.90;;;;;;5112891;28;20323;-77
2021/12/10 07:27:47;;;;;;;;;;;22.80;38.10;;;;;;5112828;28;20356;-75
2021/12/10 07:30:15;;;;;;;;;;;22.90;38.50;;;;;;5112685;28;19908;-75
2021/12/10 07:32:40;;;;;;;;;;;22.90;39.60;;;;;;5111874;28;19947;-76
2021/12/10 07:35:06;;;;;;;;;;;22.90;39.40;;;;;;5112813;28;19922;-78
2021/12/10 07:37:37;;;;;;;;;;;22.90;39.40;;;;;;5112101;28;19912;-77
2021/12/10 07:40:03;;;;;;;;;;;23.00;39.20;;;;;;5112197;28;19915;-77
2021/12/10 07:42:29;;;;;;;;;;;23.00;40.00;;;;;;5112810;28;20010;-78
2021/12/10 07:44:57;;;;;;;;;;;23.00;39.40;;;;;;5112197;28;20011;-77
2021/12/10 07:47:25;;;;;;;;;;;23.00;39.30;;;;;;5111889;28;19914;-74
2021/12/10 07:49:57;;;;;;;;;;;23.10;39.20;;;;;;5111781;28;19908;-74
2021/12/10 07:52:28;;;;;;;;;;;23.10;38.90;;;;;;5112715;28;19916;-75
2021/12/10 07:54:55;;;;;;;;;;;23.20;38.60;;;;;;5111570;28;19922;-78
2021/12/10 07:57:22;;;;;;;;;;;23.20;38.40;;;;;;5112289;28;19916;-76
2021/12/10 07:59:50;;;;;;;;;;;23.20;38.50;;;;;;5112608;28;19930;-78
2021/12/10 08:02:19;;;;;;;;;;;23.20;38.50;;;;;;5111821;28;19912;-78
2021/12/10 08:04:45;;;;;;;;;;;23.20;42.90;;;;;;5094471;28;19919;-76
2021/12/10 08:07:13;;;;;;;;;;;23.20;44.20;;;;;;5111376;28;20261;-73
2021/12/10 08:09:42;;;;;;;;;;;23.30;45.10;;;;;;5112254;28;20297;-75
2021/12/10 08:12:10;;;;;;;;;;;23.30;45.30;;;;;;5111348;28;19979;-76
2021/12/10 08:14:35;;;;;;;;;;;23.30;45.60;;;;;;5112053;28;19911;-75
2021/12/10 08:17:01;;;;;;;;;;;23.30;45.50;;;;;;5110819;28;19927;-75
2021/12/10 08:19:29;;;;;;;;;;;23.30;45.50;;;;;;5111061;28;19908;-77
2021/12/10 08:21:55;;;;;;;;;;;23.40;45.30;;;;;;5111211;28;19908;-75
2021/12/10 08:24:21;;;;;;;;;;;23.40;45.20;;;;;;5111928;28;19926;-74
2021/12/10 08:26:51;;;;;;;;;;;23.40;45.10;;;;;;5112318;28;19908;-77
2021/12/10 08:29:19;;;;;;;;;;;23.40;45.00;;;;;;5098348;28;20218;-74
2021/12/10 08:31:45;;;;;;;;;;;23.40;44.90;;;;;;5098233;28;19916;-75
2021/12/10 08:34:13;;;;;;;;;;;23.50;44.80;;;;;;5097310;28;19995;-77
2021/12/10 08:36:38;;;;;;;;;;;23.50;44.90;;;;;;5080817;28;19977;-77
2021/12/10 08:39:07;;;;;;;;;;;23.50;44.70;;;;;;5097205;28;19916;-78
2021/12/10 08:41:34;;;;;;;;;;;23.50;44.60;;;;;;5097925;28;19908;-75
2021/12/10 08:44:00;;;;;;;;;;;23.50;44.60;;;;;;5097133;28;20311;-76
2021/12/10 08:46:28;;;;;;;;;;;23.50;44.50;;;;;;5097928;28;19912;-77
2021/12/10 08:48:56;;;;;;;;;;;23.50;44.40;;;;;;5097558;28;19908;-75
2021/12/10 08:51:23;;;;;;;;;;;23.50;44.30;;;;;;5097755;28;20450;-78
2021/12/10 08:53:51;;;;;;;;;;;23.50;44.30;;;;;;5096706;28;19954;-77
2021/12/10 08:56:18;;;;;;;;;;;23.50;44.90;;;;;;5097717;28;20031;-75
2021/12/10 08:58:44;;;;;;;;;;;23.60;44.30;;;;;;5097421;28;19935;-77
2021/12/10 09:01:29;;;;;;;;;;;23.60;44.20;;;;;;5079866;28;20240;-75
2021/12/10 09:03:58;;;;;;;;;;;23.60;44.10;;;;;;5097369;28;19958;-75
2021/12/10 09:06:27;;;;;;;;;;;23.60;44.10;;;;;;5096655;28;19995;-82
2021/12/10 09:08:54;;;;;;;;;;;23.60;43.80;;;;;;5096876;28;19919;-74
2021/12/10 09:11:20;;;;;;;;;;;23.60;44.50;;;;;;5096777;28;19908;-74
2021/12/10 09:13:50;;;;;;;;;;;23.60;43.90;;;;;;5097478;28;20236;-74
2021/12/10 09:16:24;;;;;;;;;;;23.60;43.80;;;;;;5100232;28;19924;-75
2021/12/10 09:18:49;;;;;;;;;;;23.60;43.70;;;;;;5097403;28;19909;-76
2021/12/10 09:21:15;;;;;;;;;;;23.60;43.60;;;;;;5104270;28;19958;-77
2021/12/10 09:23:40;;;;;;;;;;;23.60;43.70;;;;;;5099168;28;20409;-75
2021/12/10 09:26:09;;;;;;;;;;;23.70;43.70;;;;;;5096116;28;20337;-75
2021/12/10 09:28:35;;;;;;;;;;;23.60;43.50;;;;;;5097008;28;19908;-75
2021/12/10 09:31:00;;;;;;;;;;;23.70;43.50;;;;;;5097320;28;19908;-74
2021/12/10 09:33:28;;;;;;;;;;;23.70;43.50;;;;;;5079604;28;19908;-75
2021/12/10 09:35:54;;;;;;;;;;;23.70;43.50;;;;;;5095945;28;19912;-75
2021/12/10 09:38:24;;;;;;;;;;;23.70;43.40;;;;;;5078840;28;20374;-77
2021/12/10 09:40:52;;;;;;;;;;;23.70;43.40;;;;;;5095552;28;19919;-75
2021/12/10 09:43:18;;;;;;;;;;;23.70;43.30;;;;;;5079131;28;19908;-75
2021/12/10 09:45:43;;;;;;;;;;;23.70;43.30;;;;;;5096567;28;19915;-74
2021/12/10 09:48:12;;;;;;;;;;;23.70;43.30;;;;;;5095600;28;20303;-76
2021/12/10 09:50:46;;;;;;;;;;;23.70;43.40;;;;;;5095556;28;19951;-74
2021/12/10 09:53:16;;;;;;;;;;;23.70;43.10;;;;;;5096610;28;19937;-74
2021/12/10 09:55:42;;;;;;;;;;;23.70;43.20;;;;;;5096273;28;19908;-74
2021/12/10 09:58:07;;;;;;;;;;;23.70;43.20;;;;;;5096306;28;19958;-76
2021/12/10 10:00:33;;;;;;;;;;;23.70;43.10;;;;;;5078454;28;19919;-75
2021/12/10 10:02:58;;;;;;;;;;;23.70;43.00;;;;;;5096055;28;19908;-77
2021/12/10 10:05:27;;;;;;;;;;;23.70;43.00;;;;;;5078458;28;20061;-75
2021/12/10 10:07:57;;;;;;;;;;;23.70;43.00;;;;;;5078214;28;20021;-76
2021/12/10 10:10:23;;;;;;;;;;;23.70;42.90;;;;;;5095905;28;19908;-75
2021/12/10 10:12:49;;;;;;;;;;;23.70;42.90;;;;;;5095869;28;19908;-74
2021/12/10 10:15:21;;;;;;;;;;;23.70;42.90;;;;;;5094976;28;19919;-75
2021/12/10 10:17:46;;;;;;;;;;;23.70;42.90;;;;;;5094697;28;19928;-75
2021/12/10 10:20:12;;;;;;;;;;;23.70;42.90;;;;;;5077932;28;20007;-75
2021/12/10 10:22:38;;;;;;;;;;;23.70;42.80;;;;;;5095742;28;19908;-76
2021/12/10 10:25:07;;;;;;;;;;;23.70;42.80;;;;;;5095587;28;19920;-74
2021/12/10 10:27:33;;;;;;;;;;;23.70;42.80;;;;;;5094611;28;20341;-76
2021/12/10 10:30:04;;;;;;;;;;;23.70;42.80;;;;;;5094683;28;19920;-76
2021/12/10 10:32:31;;;;;;;;;;;23.70;42.70;;;;;;5095714;28;19926;-75
2021/12/10 10:35:01;;;;;;;;;;;23.70;42.70;;;;;;5094674;28;19908;-77
2021/12/10 10:37:26;;;;;;;;;;;23.70;42.70;;;;;;5095945;28;19947;-76
2021/12/10 10:39:52;;;;;;;;;;;23.80;42.60;;;;;;5094905;28;19908;-75
2021/12/10 10:42:21;;;;;;;;;;;23.70;42.50;;;;;;5095258;28;19970;-74
2021/12/10 10:44:47;;;;;;;;;;;23.70;42.50;;;;;;5094624;28;20543;-75
2021/12/10 10:47:12;;;;;;;;;;;23.70;42.50;;;;;;5094679;28;19916;-74
2021/12/10 10:49:39;;;;;;;;;;;23.80;42.50;;;;;;5095302;28;19919;-75
2021/12/10 10:52:14;;;;;;;;;;;23.80;42.40;;;;;;5094464;28;19951;-77
2021/12/10 10:54:40;;;;;;;;;;;23.80;42.50;;;;;;5077452;28;20341;-75
2021/12/10 10:57:27;;;;;;;;;;;23.80;42.40;;;;;;5094265;28;20015;-77
2021/12/10 10:59:56;;;;;;;;;;;23.80;42.30;;;;;;5095412;28;20249;-76
2021/12/10 11:02:25;;;;;;;;;;;23.80;42.30;;;;;;5095001;28;19908;-75
2021/12/10 11:04:52;;;;;;;;;;;23.80;42.30;;;;;;5095183;28;19965;-75
2021/12/10 11:07:21;;;;;;;;;;;23.80;42.30;;;;;;5095143;28;19908;-76
2021/12/10 11:09:47;;;;;;;;;;;23.80;42.20;;;;;;5094996;28;19915;-80
2021/12/10 11:12:15;;;;;;;;;;;23.80;42.20;;;;;;5095151;28;19908;-77
2021/12/10 11:14:44;;;;;;;;;;;23.80;42.10;;;;;;5094069;28;20261;-75
2021/12/10 11:17:09;;;;;;;;;;;23.80;42.20;;;;;;5093812;28;20264;-75
2021/12/10 11:19:35;;;;;;;;;;;23.80;42.10;;;;;;5094170;28;19908;-74
2021/12/10 11:22:08;;;;;;;;;;;23.80;42.10;;;;;;5095031;28;20029;-76
2021/12/10 11:24:44;;;;;;;;;;;23.80;41.90;;;;;;5094066;28;19908;-76
2021/12/10 11:27:13;;;;;;;;;;;23.80;41.90;;;;;;5094308;28;19923;-75
2021/12/10 11:29:47;;;;;;;;;;;23.80;41.90;;;;;;5095012;28;20370;-75
2021/12/10 11:32:15;;;;;;;;;;;23.80;42.00;;;;;;5094033;28;20379;-75
2021/12/10 11:34:48;;;;;;;;;;;23.80;41.90;;;;;;5094770;28;19919;-76
2021/12/10 11:37:15;;;;;;;;;;;23.80;41.90;;;;;;5093823;28;19916;-76
2021/12/10 11:39:47;;;;;;;;;;;23.80;42.00;;;;;;5094034;28;19908;-78
2021/12/10 11:42:36;;;;;;;;;;;23.80;41.90;;;;;;5093883;28;19999;-77
2021/12/10 11:45:17;;;;;;;;;;;23.80;41.80;;;;;;5093624;28;19973;-77
2021/12/10 11:48:04;;;;;;;;;;;22.40;37.40;;;;;;5094960;28;19955;-79
2021/12/10 11:50:29;;;;;;;;;;;21.20;33.30;;;;;;5094010;28;19967;-77
2021/12/10 11:53:02;;;;;;;;;;;20.80;33.00;;;;;;5094905;28;19908;-78
2021/12/10 11:55:27;;;;;;;;;;;20.50;32.70;;;;;;5095129;28;20283;-78
2021/12/10 11:57:53;;;;;;;;;;;20.30;32.40;;;;;;5095154;28;19923;-78
2021/12/10 12:00:22;;;;;;;;;;;20.10;32.60;;;;;;5077341;28;20346;-78
2021/12/10 12:02:49;;;;;;;;;;;19.90;32.70;;;;;;5095897;28;19987;-77
2021/12/10 12:05:18;;;;;;;;;;;19.80;33.00;;;;;;5098871;28;19999;-77
2021/12/10 12:07:45;;;;;;;;;;;19.50;32.60;;;;;;5097955;28;19908;-80
2021/12/10 12:10:18;;;;;;;;;;;19.40;32.90;;;;;;5097792;28;19908;-76
2021/12/10 12:12:49;;;;;;;;;;;19.30;33.00;;;;;;5097807;28;19908;-76
2021/12/10 12:15:37;;;;;;;;;;;19.20;33.10;;;;;;5081223;28;19908;-74
2021/12/10 12:18:02;;;;;;;;;;;18.10;35.00;;;;;;5098199;28;19976;-74
2021/12/10 12:20:33;;;;;;;;;;;19.00;36.40;;;;;;5097475;28;20010;-76
2021/12/10 12:25:48;;;;;;;;;;;20.70;35.60;;;;;;5098328;28;19961;-73
2021/12/10 12:28:17;;;;;;;;;;;21.40;34.80;;;;;;5080612;28;19958;-75
2021/12/10 12:30:55;;;;;;;;;;;21.90;34.10;;;;;;5097176;28;19972;-74
2021/12/10 12:33:24;;;;;;;;;;;22.30;33.70;;;;;;5097825;28;19939;-74
2021/12/10 12:35:51;;;;;;;;;;;22.70;33.30;;;;;;5097751;28;20340;-75
2021/12/10 12:38:21;;;;;;;;;;;22.90;33.00;;;;;;5097951;28;20412;-74
2021/12/10 12:40:47;;;;;;;;;;;23.20;33.00;;;;;;5097333;28;19920;-76
2021/12/10 12:43:12;;;;;;;;;;;23.40;32.90;;;;;;5097717;28;19908;-77
2021/12/10 12:45:38;;;;;;;;;;;23.60;33.60;;;;;;5097165;28;20004;-76
2021/12/10 12:48:05;;;;;;;;;;;23.80;33.70;;;;;;5098075;28;19908;-80
2021/12/10 12:50:31;;;;;;;;;;;24.00;33.60;;;;;;5097033;28;19916;-75
2021/12/10 12:53:05;;;;;;;;;;;24.10;33.50;;;;;;5098020;28;19912;-75
2021/12/10 12:55:36;;;;;;;;;;;24.20;33.60;;;;;;5097565;28;19958;-75
2021/12/10 12:58:11;;;;;;;;;;;24.40;33.70;;;;;;5097714;28;20402;-76
2021/12/10 13:00:57;;;;;;;;;;;24.50;33.90;;;;;;5096974;28;19991;-76
2021/12/10 13:03:43;;;;;;;;;;;24.50;33.80;;;;;;5096123;28;20372;-82
2021/12/10 13:06:23;;;;;;;;;;;23.70;31.60;;;;;;5096681;28;19919;-74
2021/12/10 13:08:59;;;;;;;;;;;22.10;34.20;;;;;;5097213;28;19908;-75
2021/12/10 13:11:31;;;;;;;;;;;21.10;35.70;;;;;;5097274;28;19913;-74
2021/12/10 13:14:13;;;;;;;;;;;21.00;36.70;;;;;;5080004;28;20049;-80
2021/12/10 13:16:49;;;;;;;;;;;21.20;36.80;;;;;;5096379;28;20368;-78
2021/12/10 13:19:20;;;;;;;;;;;21.30;35.80;;;;;;5097587;28;20320;-77
2021/12/10 13:21:52;;;;;;;;;;;21.10;36.10;;;;;;5097599;28;19908;-80
2021/12/10 13:24:17;;;;;;;;;;;20.70;36.90;;;;;;5096645;28;19919;-79
2021/12/10 13:26:43;;;;;;;;;;;20.60;37.10;;;;;;5097457;28;19909;-76
2021/12/10 13:29:08;;;;;;;;;;;20.30;37.40;;;;;;5101507;28;19912;-81
2021/12/10 13:31:35;;;;;;;;;;;20.00;38.10;;;;;;5096596;28;19908;-76
2021/12/10 13:34:06;;;;;;;;;;;20.30;38.20;;;;;;5097060;28;19915;-81
2021/12/10 13:36:33;;;;;;;;;;;20.30;37.20;;;;;;5079473;28;20006;-79
2021/12/10 13:38:59;;;;;;;;;;;20.00;38.30;;;;;;5096290;28;19908;-78
2021/12/10 13:41:26;;;;;;;;;;;20.10;39.00;;;;;;5096045;28;19908;-77
2021/12/10 13:43:55;;;;;;;;;;;20.00;38.30;;;;;;5095639;28;19933;-78
2021/12/10 13:46:29;;;;;;;;;;;20.10;38.50;;;;;;5095802;28;19912;-79
2021/12/10 13:48:55;;;;;;;;;;;20.20;38.40;;;;;;5096329;28;20034;-77
2021/12/10 13:51:23;;;;;;;;;;;20.30;37.90;;;;;;5095682;28;19908;-77
2021/12/10 13:54:20;;;;;;;;;;;20.30;38.00;;;;;;5078993;28;19915;-77
2021/12/10 13:56:50;;;;;;;;;;;20.20;38.10;;;;;;5095641;28;20037;-79
2021/12/10 13:59:19;;;;;;;;;;;20.30;37.90;;;;;;5095487;28;19918;-78
2021/12/10 14:01:45;;;;;;;;;;;20.30;37.80;;;;;;5096227;28;19930;-78
2021/12/10 14:04:17;;;;;;;;;;;20.40;37.80;;;;;;5095443;28;19915;-75
2021/12/10 14:06:42;;;;;;;;;;;20.30;38.30;;;;;;5096125;28;19939;-77
2021/12/10 14:09:12;;;;;;;;;;;20.40;37.70;;;;;;5095207;28;20325;-82
2021/12/10 14:11:56;;;;;;;;;;;20.30;37.90;;;;;;5096230;28;19909;-79
2021/12/10 14:14:35;;;;;;;;;;;20.30;38.30;;;;;;5095833;28;19908;-79
2021/12/10 14:17:02;;;;;;;;;;;20.30;38.00;;;;;;5096768;28;19939;-75
2021/12/10 14:19:35;;;;;;;;;;;20.20;38.90;;;;;;5096019;28;19908;-78
2021/12/10 14:22:00;;;;;;;;;;;20.70;37.60;;;;;;5095337;28;20240;-79
2021/12/10 14:24:42;;;;;;;;;;;21.50;35.60;;;;;;5095127;28;19922;-77
2021/12/10 14:27:08;;;;;;;;;;;22.10;33.40;;;;;;5095433;28;20333;-78
2021/12/10 14:29:33;;;;;;;;;;;22.30;32.90;;;;;;5094949;28;19909;-78
2021/12/10 14:31:59;;;;;;;;;;;21.60;34.20;;;;;;5095144;28;19914;-77
2021/12/10 14:34:27;;;;;;;;;;;21.30;35.50;;;;;;5078171;28;19908;-80